Time,TemperatureF,DewpointF,PressureIn,WindDirection,WindDirectionDegrees,WindSpeedMPH,WindSpeedGustMPH,Humidity,HourlyPrecipIn,Conditions,Clouds,dailyrainin,SolarRadiationWatts/m^2,SoftwareType,DateUTC
2017-11-20 00:00:00,24.3,23.4,30.14,NNE,17,0.0,0.5,96,0.00,,,0.01,0,,2017-11-20 05:00:00,
2017-11-20 00:05:00,24.1,23.3,30.14,North,3,0.3,0.6,96,0.00,,,0.00,0,,2017-11-20 05:05:00,
2017-11-20 00:10:00,24.0,23.2,30.14,North,10,0.3,0.4,97,0.00,,,0.00,0,,2017-11-20 05:10:00,
2017-11-20 00:20:00,23.7,23.0,30.14,North,10,0.0,0.3,97,0.00,,,0.00,0,,2017-11-20 05:20:00,
2017-11-20 00:30:00,23.5,22.9,30.14,North,1,0.0,0.6,97,0.00,,,0.00,0,,2017-11-20 05:30:00,
2017-11-20 00:35:00,23.5,22.9,30.14,North,0,0.0,0.0,97,0.00,,,0.00,0,,2017-11-20 05:35:00,
2017-11-20 00:40:00,23.5,22.9,30.14,North,0,0.1,0.0,97,0.00,,,0.00,0,,2017-11-20 05:40:00,
2017-11-20 00:45:00,23.4,22.8,30.14,North,7,0.0,0.2,97,0.00,,,0.00,0,,2017-11-20 05:45:00,
2017-11-20 00:50:00,23.3,22.8,30.14,North,6,0.2,0.6,98,0.00,,,0.00,0,,2017-11-20 05:50:00,
2017-11-20 00:55:00,23.1,22.6,30.14,North,6,0.2,0.5,98,0.00,,,0.00,0,,2017-11-20 05:55:00,
2017-11-20 01:00:00,23.2,22.8,30.14,North,11,0.2,0.5,98,0.00,,,0.00,0,,2017-11-20 06:00:00,
2017-11-20 01:05:00,23.2,22.8,30.14,NNE,15,0.0,0.6,98,0.00,,,0.00,0,,2017-11-20 06:05:00,
2017-11-20 01:10:00,23.2,22.8,30.14,NNE,14,0.0,0.5,98,0.00,,,0.00,0,,2017-11-20 06:10:00,
2017-11-20 01:15:00,23.1,22.7,30.14,North,0,0.0,0.0,98,0.00,,,0.00,0,,2017-11-20 06:15:00,
2017-11-20 01:30:00,22.7,22.3,30.15,North,352,0.0,0.3,98,0.00,,,0.00,0,,2017-11-20 06:30:00,
2017-11-20 01:40:00,22.5,22.1,30.14,NNE,21,0.0,0.5,98,0.00,,,0.00,0,,2017-11-20 06:40:00,
2017-11-20 01:45:00,22.5,22.2,30.14,North,7,0.0,0.5,98,0.00,,,0.00,0,,2017-11-20 06:45:00,
2017-11-20 01:50:00,22.6,22.2,30.14,North,7,0.0,0.2,98,0.00,,,0.00,0,,2017-11-20 06:50:00,
2017-11-20 01:55:00,22.6,22.4,30.14,North,7,0.0,0.2,98,0.00,,,0.00,0,,2017-11-20 06:55:00,
2017-11-20 02:05:00,22.5,22.2,30.14,North,0,0.0,0.0,98,0.00,,,0.00,0,,2017-11-20 07:05:00,
2017-11-20 02:10:00,22.3,21.9,30.15,North,0,0.4,0.0,98,0.00,,,0.00,0,,2017-11-20 07:10:00,
2017-11-20 02:20:00,22.3,22.0,30.14,NNE,20,0.0,0.6,98,0.00,,,0.00,0,,2017-11-20 07:20:00,
2017-11-20 02:25:00,22.5,22.2,30.14,NNE,22,0.0,0.7,98,0.00,,,0.00,0,,2017-11-20 07:25:00,
2017-11-20 02:30:00,22.5,22.2,30.15,North,353,0.0,0.3,98,0.00,,,0.00,0,,2017-11-20 07:30:00,
2017-11-20 02:35:00,22.4,22.1,30.15,NNW,328,0.0,0.1,98,0.00,,,0.00,0,,2017-11-20 07:35:00,
2017-11-20 02:40:00,22.2,21.9,30.15,North,0,0.0,0.0,98,0.00,,,0.00,0,,2017-11-20 07:40:00,
2017-11-20 02:45:00,22.1,21.8,30.15,North,0,0.0,0.0,98,0.00,,,0.00,0,,2017-11-20 07:45:00,
2017-11-20 03:00:00,22.3,22.0,30.15,North,1,0.0,0.5,98,0.00,,,0.00,0,,2017-11-20 08:00:00,
2017-11-20 03:05:00,22.3,22.0,30.15,North,0,0.0,0.0,98,0.00,,,0.00,0,,2017-11-20 08:05:00,
2017-11-20 03:10:00,22.3,22.0,30.15,North,0,0.3,0.6,98,0.00,,,0.00,0,,2017-11-20 08:10:00,
2017-11-20 03:20:00,22.6,22.3,30.15,North,11,0.0,0.8,98,0.00,,,0.00,0,,2017-11-20 08:20:00,
2017-11-20 03:25:00,22.7,22.4,30.15,North,11,0.9,0.9,99,0.00,,,0.00,0,,2017-11-20 08:25:00,
2017-11-20 03:45:00,23.5,23.2,30.15,North,5,0.0,0.9,98,0.00,,,0.00,0,,2017-11-20 08:45:00,
2017-11-20 03:50:00,23.8,23.4,30.15,North,6,0.2,0.5,98,0.00,,,0.00,0,,2017-11-20 08:50:00,
2017-11-20 04:00:00,23.7,23.2,30.15,NNE,26,0.2,0.5,97,0.00,,,0.00,0,,2017-11-20 09:00:00,
2017-11-20 04:05:00,23.7,23.2,30.14,NNE,20,0.0,0.5,97,0.00,,,0.00,0,,2017-11-20 09:05:00,
2017-11-20 04:10:00,23.7,23.1,30.14,North,7,0.0,0.2,97,0.00,,,0.00,0,,2017-11-20 09:10:00,
2017-11-20 04:15:00,23.5,22.8,30.15,NNE,22,0.0,1.0,97,0.00,,,0.00,0,,2017-11-20 09:15:00,
2017-11-20 04:20:00,23.3,22.6,30.14,NNE,24,0.0,0.5,97,0.00,,,0.00,0,,2017-11-20 09:20:00,
2017-11-20 04:25:00,23.1,22.4,30.14,North,353,0.2,0.7,97,0.00,,,0.00,0,,2017-11-20 09:25:00,
2017-11-20 04:30:00,23.1,22.4,30.14,North,11,0.0,0.8,97,0.00,,,0.00,0,,2017-11-20 09:30:00,
2017-11-20 04:35:00,23.1,22.4,30.14,NE,44,0.5,0.9,97,0.00,,,0.00,0,,2017-11-20 09:35:00,
2017-11-20 04:40:00,23.3,22.6,30.14,NNW,340,0.0,1.0,96,0.00,,,0.00,0,,2017-11-20 09:40:00,
2017-11-20 04:55:00,23.1,22.3,30.15,NNE,25,0.0,0.5,96,0.00,,,0.00,0,,2017-11-20 09:55:00,
2017-11-20 05:00:00,22.9,22.0,30.15,South,180,0.0,0.6,96,0.00,,,0.00,0,,2017-11-20 10:00:00,
2017-11-20 05:05:00,22.7,21.8,30.15,SSW,198,0.0,0.3,96,0.00,,,0.00,0,,2017-11-20 10:05:00,
2017-11-20 05:20:00,22.2,21.3,30.15,SSW,196,0.0,0.8,96,0.00,,,0.00,0,,2017-11-20 10:20:00,
2017-11-20 05:25:00,22.1,21.3,30.16,SSW,194,0.0,0.5,96,0.00,,,0.00,0,,2017-11-20 10:25:00,
2017-11-20 05:35:00,22.0,21.2,30.16,NNE,20,0.5,0.8,97,0.00,,,0.00,0,,2017-11-20 10:35:00,
2017-11-20 05:40:00,22.0,21.3,30.16,NNE,23,0.0,0.6,97,0.00,,,0.00,0,,2017-11-20 10:40:00,
2017-11-20 05:45:00,22.0,21.3,30.16,NNE,14,0.0,0.4,97,0.00,,,0.00,0,,2017-11-20 10:45:00,
2017-11-20 05:50:00,21.8,21.2,30.16,North,354,0.0,0.2,97,0.00,,,0.00,0,,2017-11-20 10:50:00,
2017-11-20 05:55:00,21.7,21.1,30.16,NNE,18,0.0,0.8,97,0.00,,,0.00,0,,2017-11-20 10:55:00,
2017-11-20 06:15:00,21.5,20.9,30.16,North,354,0.0,0.2,97,0.00,,,0.00,0,,2017-11-20 11:15:00,
2017-11-20 06:20:00,21.5,20.9,30.16,NNE,23,0.0,0.7,97,0.00,,,0.00,0,,2017-11-20 11:20:00,
2017-11-20 06:30:00,21.3,20.6,30.16,North,0,0.0,0.0,97,0.00,,,0.00,0,,2017-11-20 11:30:00,
2017-11-20 06:35:00,21.1,20.4,30.16,North,0,0.0,0.0,97,0.00,,,0.00,0,,2017-11-20 11:35:00,
2017-11-20 06:40:00,20.8,20.1,30.17,North,8,0.2,0.3,97,0.00,,,0.00,0,,2017-11-20 11:40:00,
2017-11-20 06:45:00,20.8,20.1,30.17,North,8,0.0,0.6,97,0.00,,,0.00,0,,2017-11-20 11:45:00,
2017-11-20 06:50:00,20.9,20.3,30.17,North,8,0.0,0.2,97,0.00,,,0.00,0,,2017-11-20 11:50:00,
2017-11-20 06:55:00,20.8,20.2,30.17,NE,44,0.0,0.1,97,0.00,,,0.00,0,,2017-11-20 11:55:00,
2017-11-20 07:05:00,20.6,20.0,30.18,NNE,22,0.0,0.5,97,0.00,,,0.00,0,,2017-11-20 12:05:00,
2017-11-20 07:10:00,20.6,20.1,30.18,North,0,0.0,0.0,98,0.00,,,0.00,0.4082208,,2017-11-20 12:10:00,
2017-11-20 07:15:00,20.7,20.2,30.18,North,0,0.0,0.0,98,0.00,,,0.00,1.020533,,2017-11-20 12:15:00,